sensor_id;sensor_type;location;lat;lon;timestamp;pressure;altitude;pressure_sealevel;temperature;humidity
3960;BME280;1994;48.640;8.894;2024-02-15T00:00:13;96626.81;;;10.26;99.04
3960;BME280;1994;48.640;8.894;2024-02-15T00:02:41;96628.38;;;10.27;98.90
3960;BME280;1994;48.640;8.894;2024-02-15T00:05:13;96637.09;;;10.32;98.68
3960;BME280;1994;48.640;8.894;2024-02-15T00:07:41;96630.09;;;10.33;98.28
3960;BME280;1994;48.640;8.894;2024-02-15T00:10:07;96629.53;;;10.31;98.28
3960;BME280;1994;48.640;8.894;2024-02-15T00:12:34;96635.88;;;10.35;98.10
3960;BME280;1994;48.640;8.894;2024-02-15T00:15:00;96621.31;;;10.34;98.02
3960;BME280;1994;48.640;8.894;2024-02-15T00:17:27;96625.94;;;10.32;97.95
3960;BME280;1994;48.640;8.894;2024-02-15T00:19:55;96624.34;;;10.31;97.84
3960;BME280;1994;48.640;8.894;2024-02-15T00:22:21;96621.63;;;10.26;98.26
3960;BME280;1994;48.640;8.894;2024-02-15T00:24:47;96622.78;;;10.30;98.43
3960;BME280;1994;48.640;8.894;2024-02-15T00:27:15;96625.25;;;10.25;98.58
3960;BME280;1994;48.640;8.894;2024-02-15T00:29:41;96619.03;;;10.26;98.70
3960;BME280;1994;48.640;8.894;2024-02-15T00:32:07;96617.94;;;10.33;98.45
3960;BME280;1994;48.640;8.894;2024-02-15T00:34:33;96624.91;;;10.33;98.32
3960;BME280;1994;48.640;8.894;2024-02-15T00:36:59;96624.03;;;10.39;97.87
3960;BME280;1994;48.640;8.894;2024-02-15T00:39:25;96622.47;;;10.38;98.04
3960;BME280;1994;48.640;8.894;2024-02-15T00:41:51;96626.63;;;10.39;97.62
3960;BME280;1994;48.640;8.894;2024-02-15T00:44:16;96621.44;;;10.39;97.96
3960;BME280;1994;48.640;8.894;2024-02-15T00:46:43;96623.03;;;10.40;97.65
3960;BME280;1994;48.640;8.894;2024-02-15T00:49:09;96620.88;;;10.37;97.49
3960;BME280;1994;48.640;8.894;2024-02-15T00:51:37;96621.31;;;10.34;97.47
3960;BME280;1994;48.640;8.894;2024-02-15T00:54:03;96614.44;;;10.28;97.76
3960;BME280;1994;48.640;8.894;2024-02-15T00:56:29;96612.16;;;10.20;97.80
3960;BME280;1994;48.640;8.894;2024-02-15T00:58:56;96609.44;;;10.15;98.33
3960;BME280;1994;48.640;8.894;2024-02-15T01:01:22;96604.13;;;10.10;98.20
3960;BME280;1994;48.640;8.894;2024-02-15T01:03:48;96607.56;;;10.04;98.35
3960;BME280;1994;48.640;8.894;2024-02-15T01:06:14;96608.34;;;10.04;98.15
3960;BME280;1994;48.640;8.894;2024-02-15T01:08:39;96612.03;;;9.97;98.13
3960;BME280;1994;48.640;8.894;2024-02-15T01:11:05;96612.16;;;9.84;98.29
3960;BME280;1994;48.640;8.894;2024-02-15T01:13:31;96609.88;;;9.76;98.63
3960;BME280;1994;48.640;8.894;2024-02-15T01:15:57;96614.31;;;9.69;99.21
3960;BME280;1994;48.640;8.894;2024-02-15T01:18:23;96607.13;;;9.71;98.85
3960;BME280;1994;48.640;8.894;2024-02-15T01:20:49;96599.94;;;9.73;98.41
3960;BME280;1994;48.640;8.894;2024-02-15T01:23:15;96602.84;;;9.65;98.89
3960;BME280;1994;48.640;8.894;2024-02-15T01:25:40;96602.03;;;9.64;99.22
3960;BME280;1994;48.640;8.894;2024-02-15T01:28:06;96601.38;;;9.51;99.49
3960;BME280;1994;48.640;8.894;2024-02-15T01:30:32;96602.19;;;9.51;99.55
3960;BME280;1994;48.640;8.894;2024-02-15T01:32:58;96602.19;;;9.51;100.00
3960;BME280;1994;48.640;8.894;2024-02-15T01:35:26;96607.41;;;9.45;100.00
3960;BME280;1994;48.640;8.894;2024-02-15T01:37:52;96607.47;;;9.38;100.00
3960;BME280;1994;48.640;8.894;2024-02-15T01:40:18;96610.69;;;9.34;100.00
3960;BME280;1994;48.640;8.894;2024-02-15T01:42:47;96605.53;;;9.34;100.00
3960;BME280;1994;48.640;8.894;2024-02-15T01:45:16;96605.81;;;9.26;100.00
3960;BME280;1994;48.640;8.894;2024-02-15T01:47:42;96602.28;;;9.20;100.00
3960;BME280;1994;48.640;8.894;2024-02-15T01:50:10;96592.44;;;9.11;100.00
3960;BME280;1994;48.640;8.894;2024-02-15T01:52:38;96593.84;;;9.07;100.00
3960;BME280;1994;48.640;8.894;2024-02-15T01:55:05;96595.69;;;9.00;100.00
3960;BME280;1994;48.640;8.894;2024-02-15T01:57:35;96599.69;;;8.96;100.00
3960;BME280;1994;48.640;8.894;2024-02-15T02:00:05;96605.72;;;8.90;100.00
3960;BME280;1994;48.640;8.894;2024-02-15T02:02:33;96599.97;;;8.88;100.00
3960;BME280;1994;48.640;8.894;2024-02-15T02:04:59;96591.63;;;8.86;100.00
3960;BME280;1994;48.640;8.894;2024-02-15T02:07:25;96593.22;;;8.87;100.00
3960;BME280;1994;48.640;8.894;2024-02-15T02:09:51;96585.28;;;8.82;100.00
3960;BME280;1994;48.640;8.894;2024-02-15T02:12:17;96596.78;;;8.86;100.00
3960;BME280;1994;48.640;8.894;2024-02-15T02:14:43;96594.06;;;8.81;100.00
3960;BME280;1994;48.640;8.894;2024-02-15T02:17:15;96599.66;;;8.78;100.00
3960;BME280;1994;48.640;8.894;2024-02-15T02:19:42;96595.69;;;8.75;100.00
3960;BME280;1994;48.640;8.894;2024-02-15T02:22:09;96598.47;;;8.74;100.00
3960;BME280;1994;48.640;8.894;2024-02-15T02:27:26;96598.16;;;8.64;100.00
3960;BME280;1994;48.640;8.894;2024-02-15T02:29:53;96592.59;;;8.67;100.00
3960;BME280;1994;48.640;8.894;2024-02-15T02:32:19;96592.59;;;8.67;100.00
3960;BME280;1994;48.640;8.894;2024-02-15T02:34:45;96586.63;;;8.66;100.00
3960;BME280;1994;48.640;8.894;2024-02-15T02:37:10;96583.84;;;8.68;100.00
3960;BME280;1994;48.640;8.894;2024-02-15T02:39:39;96585.81;;;8.66;100.00
3960;BME280;1994;48.640;8.894;2024-02-15T02:42:05;96582.25;;;8.67;100.00
3960;BME280;1994;48.640;8.894;2024-02-15T02:44:31;96583.84;;;8.68;100.00
3960;BME280;1994;48.640;8.894;2024-02-15T02:46:57;96586.25;;;8.63;100.00
3960;BME280;1994;48.640;8.894;2024-02-15T02:49:23;96588.25;;;8.61;100.00
3960;BME280;1994;48.640;8.894;2024-02-15T02:51:49;96582.66;;;8.64;100.00
3960;BME280;1994;48.640;8.894;2024-02-15T02:54:15;96581.94;;;8.57;100.00
3960;BME280;1994;48.640;8.894;2024-02-15T02:56:40;96577.94;;;8.61;100.00
3960;BME280;1994;48.640;8.894;2024-02-15T02:59:09;96579.50;;;8.62;100.00
3960;BME280;1994;48.640;8.894;2024-02-15T03:01:35;96571.94;;;8.67;100.00
3960;BME280;1994;48.640;8.894;2024-02-15T03:04:01;96578.31;;;8.64;100.00
3960;BME280;1994;48.640;8.894;2024-02-15T03:06:26;96573.50;;;8.68;100.00
3960;BME280;1994;48.640;8.894;2024-02-15T03:08:53;96584.59;;;8.68;100.00
3960;BME280;1994;48.640;8.894;2024-02-15T03:11:21;96587.63;;;8.65;100.00
3960;BME280;1994;48.640;8.894;2024-02-15T03:13:48;96590.97;;;8.66;100.00
3960;BME280;1994;48.640;8.894;2024-02-15T03:16:14;96586.25;;;8.63;100.00
3960;BME280;1994;48.640;8.894;2024-02-15T03:18:42;96578.69;;;8.61;100.00
3960;BME280;1994;48.640;8.894;2024-02-15T03:21:09;96588.66;;;8.58;100.00
3960;BME280;1994;48.640;8.894;2024-02-15T03:23:37;96585.50;;;8.56;100.00
3960;BME280;1994;48.640;8.894;2024-02-15T03:26:03;96595.69;;;8.51;100.00
3960;BME280;1994;48.640;8.894;2024-02-15T03:28:31;96577.66;;;8.38;100.00
3960;BME280;1994;48.640;8.894;2024-02-15T03:30:57;96591.41;;;8.32;100.00
3960;BME280;1994;48.640;8.894;2024-02-15T03:33:26;96579.34;;;8.26;100.00
3960;BME280;1994;48.640;8.894;2024-02-15T03:35:54;96582.91;;;8.25;100.00
3960;BME280;1994;48.640;8.894;2024-02-15T03:38:22;96588.47;;;8.22;100.00
3960;BME280;1994;48.640;8.894;2024-02-15T03:40:49;96588.47;;;8.22;100.00
3960;BME280;1994;48.640;8.894;2024-02-15T03:43:15;96582.34;;;8.23;100.00
3960;BME280;1994;48.640;8.894;2024-02-15T03:45:41;96587.72;;;8.21;100.00
3960;BME280;1994;48.640;8.894;2024-02-15T03:48:07;96589.66;;;8.26;100.00
3960;BME280;1994;48.640;8.894;2024-02-15T03:50:33;96597.00;;;8.29;100.00
3960;BME280;1994;48.640;8.894;2024-02-15T03:52:59;96594.00;;;8.32;100.00
3960;BME280;1994;48.640;8.894;2024-02-15T03:55:26;96595.16;;;8.36;100.00
3960;BME280;1994;48.640;8.894;2024-02-15T03:57:51;96589.59;;;8.39;100.00
3960;BME280;1994;48.640;8.894;2024-02-15T04:00:18;96598.69;;;8.41;100.00
3960;BME280;1994;48.640;8.894;2024-02-15T04:02:46;96597.47;;;8.44;100.00
3960;BME280;1994;48.640;8.894;2024-02-15T04:05:15;96597.09;;;8.47;100.00
3960;BME280;1994;48.640;8.894;2024-02-15T04:07:44;96599.47;;;8.48;100.00
3960;BME280;1994;48.640;8.894;2024-02-15T04:10:10;96586.34;;;8.50;100.00
3960;BME280;1994;48.640;8.894;2024-02-15T04:12:36;96585.34;;;8.51;100.00
3960;BME280;1994;48.640;8.894;2024-02-15T04:15:03;96584.91;;;8.54;100.00
3960;BME280;1994;48.640;8.894;2024-02-15T04:17:38;96580.75;;;8.53;100.00
3960;BME280;1994;48.640;8.894;2024-02-15T04:20:04;96587.06;;;8.63;100.00
3960;BME280;1994;48.640;8.894;2024-02-15T04:22:35;96586.56;;;8.73;100.00
3960;BME280;1994;48.640;8.894;2024-02-15T04:25:05;96585.38;;;8.75;100.00
3960;BME280;1994;48.640;8.894;2024-02-15T04:27:32;96595.63;;;8.82;100.00
3960;BME280;1994;48.640;8.894;2024-02-15T04:29:59;96586.06;;;8.89;100.00
3960;BME280;1994;48.640;8.894;2024-02-15T04:32:24;96595.38;;;8.90;100.00
3960;BME280;1994;48.640;8.894;2024-02-15T04:34:50;96592.31;;;8.99;100.00
3960;BME280;1994;48.640;8.894;2024-02-15T04:37:17;96591.94;;;8.96;98.84
3960;BME280;1994;48.640;8.894;2024-02-15T04:39:43;96588.03;;;8.87;98.68
3960;BME280;1994;48.640;8.894;2024-02-15T04:42:09;96590.16;;;8.72;98.88
3960;BME280;1994;48.640;8.894;2024-02-15T04:44:39;96589.56;;;8.70;98.75
3960;BME280;1994;48.640;8.894;2024-02-15T04:47:05;96586.66;;;8.60;99.36
3960;BME280;1994;48.640;8.894;2024-02-15T04:49:34;96587.66;;;8.59;99.69
3960;BME280;1994;48.640;8.894;2024-02-15T04:52:04;96573.53;;;8.61;99.57
3960;BME280;1994;48.640;8.894;2024-02-15T04:54:30;96579.50;;;8.62;99.29
3960;BME280;1994;48.640;8.894;2024-02-15T04:56:58;96573.13;;;8.64;99.25
3960;BME280;1994;48.640;8.894;2024-02-15T04:59:24;96567.16;;;8.64;99.48
3960;BME280;1994;48.640;8.894;2024-02-15T05:01:54;96576.72;;;8.63;99.56
3960;BME280;1994;48.640;8.894;2024-02-15T05:04:22;96569.19;;;8.62;99.56
3960;BME280;1994;48.640;8.894;2024-02-15T05:06:48;96567.16;;;8.64;99.44
3960;BME280;1994;48.640;8.894;2024-02-15T05:09:14;96567.16;;;8.64;99.43
3960;BME280;1994;48.640;8.894;2024-02-15T05:11:40;96560.84;;;8.60;99.57
3960;BME280;1994;48.640;8.894;2024-02-15T05:14:14;96559.25;;;8.59;99.28
3960;BME280;1994;48.640;8.894;2024-02-15T05:16:48;96567.84;;;8.53;99.48
3960;BME280;1994;48.640;8.894;2024-02-15T05:19:18;96560.53;;;8.50;99.27
3960;BME280;1994;48.640;8.894;2024-02-15T05:21:45;96561.34;;;8.44;99.12
3960;BME280;1994;48.640;8.894;2024-02-15T05:24:16;96562.94;;;8.45;99.35
3960;BME280;1994;48.640;8.894;2024-02-15T05:26:44;96561.34;;;8.44;99.17
3960;BME280;1994;48.640;8.894;2024-02-15T05:29:14;96556.25;;;8.37;99.33
3960;BME280;1994;48.640;8.894;2024-02-15T05:31:41;96566.38;;;8.39;98.95
3960;BME280;1994;48.640;8.894;2024-02-15T05:34:07;96563.81;;;8.32;99.06
3960;BME280;1994;48.640;8.894;2024-02-15T05:36:34;96554.28;;;8.33;98.88
3960;BME280;1994;48.640;8.894;2024-02-15T05:39:00;96556.47;;;8.29;98.65
3960;BME280;1994;48.640;8.894;2024-02-15T05:41:28;96562.06;;;8.26;98.88
3960;BME280;1994;48.640;8.894;2024-02-15T05:43:55;96557.53;;;8.15;99.61
3960;BME280;1994;48.640;8.894;2024-02-15T05:46:21;96563.91;;;8.13;99.72
3960;BME280;1994;48.640;8.894;2024-02-15T05:48:47;96574.63;;;8.10;100.00
3960;BME280;1994;48.640;8.894;2024-02-15T05:51:13;96573.44;;;8.06;99.58
3960;BME280;1994;48.640;8.894;2024-02-15T05:53:39;96574.28;;;8.00;98.56
3960;BME280;1994;48.640;8.894;2024-02-15T05:56:08;96568.78;;;7.90;97.50
3960;BME280;1994;48.640;8.894;2024-02-15T05:58:35;96567.63;;;7.86;97.72
3960;BME280;1994;48.640;8.894;2024-02-15T06:01:03;96572.78;;;7.79;97.74
3960;BME280;1994;48.640;8.894;2024-02-15T06:03:34;96574.38;;;7.80;98.23
3960;BME280;1994;48.640;8.894;2024-02-15T06:06:04;96572.03;;;7.79;98.90
3960;BME280;1994;48.640;8.894;2024-02-15T06:08:34;96577.00;;;7.74;99.49
3960;BME280;1994;48.640;8.894;2024-02-15T06:11:00;96573.81;;;7.72;99.80
3960;BME280;1994;48.640;8.894;2024-02-15T06:13:27;96568.25;;;7.75;99.55
3960;BME280;1994;48.640;8.894;2024-02-15T06:15:54;96568.06;;;7.70;99.48
3960;BME280;1994;48.640;8.894;2024-02-15T06:18:24;96561.34;;;7.69;99.11
3960;BME280;1994;48.640;8.894;2024-02-15T06:20:53;96558.97;;;7.67;99.51
3960;BME280;1994;48.640;8.894;2024-02-15T06:23:20;96568.91;;;7.64;99.49
3960;BME280;1994;48.640;8.894;2024-02-15T06:25:52;96566.31;;;7.64;99.92
3960;BME280;1994;48.640;8.894;2024-02-15T06:28:19;96557.00;;;7.63;100.00
3960;BME280;1994;48.640;8.894;2024-02-15T06:31:07;96565.31;;;7.65;100.00
3960;BME280;1994;48.640;8.894;2024-02-15T06:33:51;96559.41;;;7.58;100.00
3960;BME280;1994;48.640;8.894;2024-02-15T06:36:41;96547.53;;;7.44;100.00
3960;BME280;1994;48.640;8.894;2024-02-15T06:39:25;96542.38;;;7.44;100.00
3960;BME280;1994;48.640;8.894;2024-02-15T06:42:16;96552.69;;;7.44;100.00
3960;BME280;1994;48.640;8.894;2024-02-15T06:44:48;96549.09;;;7.51;100.00
3960;BME280;1994;48.640;8.894;2024-02-15T06:47:14;96554.25;;;7.58;100.00
3960;BME280;1994;48.640;8.894;2024-02-15T06:49:44;96551.84;;;7.63;100.00
3960;BME280;1994;48.640;8.894;2024-02-15T06:52:11;96554.63;;;7.68;100.00
3960;BME280;1994;48.640;8.894;2024-02-15T06:54:41;96555.75;;;7.78;100.00
3960;BME280;1994;48.640;8.894;2024-02-15T06:57:07;96553.72;;;7.87;100.00
3960;BME280;1994;48.640;8.894;2024-02-15T06:59:33;96551.69;;;7.95;100.00
3960;BME280;1994;48.640;8.894;2024-02-15T07:02:01;96548.53;;;7.93;100.00
3960;BME280;1994;48.640;8.894;2024-02-15T07:04:27;96551.25;;;8.05;100.00
3960;BME280;1994;48.640;8.894;2024-02-15T07:06:53;96555.56;;;8.11;99.77
3960;BME280;1994;48.640;8.894;2024-02-15T07:09:22;96558.66;;;8.32;99.62
3960;BME280;1994;48.640;8.894;2024-02-15T07:11:52;96555.38;;;8.50;98.96
3960;BME280;1994;48.640;8.894;2024-02-15T07:14:18;96560.44;;;8.63;98.06
3960;BME280;1994;48.640;8.894;2024-02-15T07:16:49;96556.31;;;8.80;97.49
3960;BME280;1994;48.640;8.894;2024-02-15T07:19:15;96557.34;;;8.97;96.47
3960;BME280;1994;48.640;8.894;2024-02-15T07:21:42;96554.94;;;9.02;96.47
3960;BME280;1994;48.640;8.894;2024-02-15T07:24:08;96561.25;;;9.06;96.23
3960;BME280;1994;48.640;8.894;2024-02-15T07:26:36;96545.63;;;9.19;96.20
3960;BME280;1994;48.640;8.894;2024-02-15T07:29:02;96545.91;;;9.11;95.31
3960;BME280;1994;48.640;8.894;2024-02-15T07:31:32;96535.72;;;9.16;95.28
3960;BME280;1994;48.640;8.894;2024-02-15T07:33:59;96535.13;;;8.96;95.80
3960;BME280;1994;48.640;8.894;2024-02-15T07:36:25;96535.66;;;8.80;96.62
3960;BME280;1994;48.640;8.894;2024-02-15T07:38:52;96526.91;;;8.81;96.55
3960;BME280;1994;48.640;8.894;2024-02-15T07:41:20;96526.41;;;8.66;97.44
3960;BME280;1994;48.640;8.894;2024-02-15T07:43:48;96526.97;;;8.74;97.84
3960;BME280;1994;48.640;8.894;2024-02-15T07:46:15;96518.63;;;8.72;97.44
3960;BME280;1994;48.640;8.894;2024-02-15T07:48:43;96518.00;;;8.77;98.03
3960;BME280;1994;48.640;8.894;2024-02-15T07:51:16;96515.00;;;8.98;97.16
3960;BME280;1994;48.640;8.894;2024-02-15T07:53:44;96511.56;;;9.04;96.80
3960;BME280;1994;48.640;8.894;2024-02-15T07:56:10;96510.31;;;9.13;96.10
3960;BME280;1994;48.640;8.894;2024-02-15T07:58:41;96503.84;;;9.22;95.98
3960;BME280;1994;48.640;8.894;2024-02-15T08:01:08;96505.44;;;9.23;95.53
3960;BME280;1994;48.640;8.894;2024-02-15T08:03:35;96505.84;;;9.20;95.26
3960;BME280;1994;48.640;8.894;2024-02-15T08:06:02;96504.56;;;9.29;95.31
3960;BME280;1994;48.640;8.894;2024-02-15T08:08:35;96496.78;;;9.47;94.74
3960;BME280;1994;48.640;8.894;2024-02-15T08:11:02;96501.69;;;9.55;94.13
3960;BME280;1994;48.640;8.894;2024-02-15T08:13:29;96495.91;;;9.53;93.94
3960;BME280;1994;48.640;8.894;2024-02-15T08:15:55;96494.78;;;9.49;94.10
3960;BME280;1994;48.640;8.894;2024-02-15T08:18:21;96500.31;;;9.52;94.31
3960;BME280;1994;48.640;8.894;2024-02-15T08:20:47;96488.88;;;9.42;94.51
3960;BME280;1994;48.640;8.894;2024-02-15T08:23:13;96494.78;;;9.49;94.27
3960;BME280;1994;48.640;8.894;2024-02-15T08:25:39;96488.16;;;9.53;93.88
3960;BME280;1994;48.640;8.894;2024-02-15T08:28:08;96492.78;;;9.51;94.39
3960;BME280;1994;48.640;8.894;2024-02-15T08:30:33;96486.72;;;9.57;94.30
3960;BME280;1994;48.640;8.894;2024-02-15T08:32:59;96484.34;;;9.73;93.75
3960;BME280;1994;48.640;8.894;2024-02-15T08:35:25;96469.91;;;9.66;93.08
3960;BME280;1994;48.640;8.894;2024-02-15T08:37:51;96483.59;;;9.55;93.25
3960;BME280;1994;48.640;8.894;2024-02-15T08:40:18;96481.84;;;9.67;93.62
3960;BME280;1994;48.640;8.894;2024-02-15T08:42:50;96477.88;;;9.94;93.03
3960;BME280;1994;48.640;8.894;2024-02-15T08:45:16;96474.75;;;10.33;91.21
3960;BME280;1994;48.640;8.894;2024-02-15T08:47:42;96476.69;;;10.72;89.02
3960;BME280;1994;48.640;8.894;2024-02-15T08:50:10;96472.03;;;11.20;85.71
3960;BME280;1994;48.640;8.894;2024-02-15T08:52:38;96469.81;;;11.63;83.61
3960;BME280;1994;48.640;8.894;2024-02-15T08:55:09;96467.09;;;12.14;81.68
3960;BME280;1994;48.640;8.894;2024-02-15T08:57:36;96464.91;;;12.72;78.22
3960;BME280;1994;48.640;8.894;2024-02-15T09:00:05;96464.44;;;13.08;76.95
3960;BME280;1994;48.640;8.894;2024-02-15T09:02:35;96469.94;;;13.54;74.06
3960;BME280;1994;48.640;8.894;2024-02-15T09:05:01;96467.19;;;13.87;73.01
3960;BME280;1994;48.640;8.894;2024-02-15T09:07:26;96476.69;;;14.25;71.25
3960;BME280;1994;48.640;8.894;2024-02-15T09:09:52;96466.84;;;14.32;70.96
3960;BME280;1994;48.640;8.894;2024-02-15T09:12:18;96463.00;;;14.71;69.69
3960;BME280;1994;48.640;8.894;2024-02-15T09:14:44;96460.44;;;14.81;69.39
3960;BME280;1994;48.640;8.894;2024-02-15T09:17:10;96461.91;;;15.08;69.10
3960;BME280;1994;48.640;8.894;2024-02-15T09:19:36;96461.84;;;15.45;66.79
3960;BME280;1994;48.640;8.894;2024-02-15T09:22:05;96456.00;;;15.28;67.32
3960;BME280;1994;48.640;8.894;2024-02-15T09:24:32;96452.47;;;15.49;66.54
3960;BME280;1994;48.640;8.894;2024-02-15T09:27:04;96452.56;;;15.69;66.17
3960;BME280;1994;48.640;8.894;2024-02-15T09:29:30;96450.69;;;15.08;66.32
3960;BME280;1994;48.640;8.894;2024-02-15T09:31:56;96442.41;;;15.16;66.82
3960;BME280;1994;48.640;8.894;2024-02-15T09:34:23;96437.88;;;15.63;65.09
3960;BME280;1994;48.640;8.894;2024-02-15T09:36:50;96442.09;;;15.74;64.49
3960;BME280;1994;48.640;8.894;2024-02-15T09:39:17;96437.34;;;15.56;64.86
3960;BME280;1994;48.640;8.894;2024-02-15T09:41:43;96438.38;;;15.45;64.33
3960;BME280;1994;48.640;8.894;2024-02-15T09:44:10;96435.88;;;15.95;63.20
3960;BME280;1994;48.640;8.894;2024-02-15T09:46:38;96439.88;;;16.47;61.34
3960;BME280;1994;48.640;8.894;2024-02-15T09:49:08;96438.03;;;16.73;60.66
3960;BME280;1994;48.640;8.894;2024-02-15T09:51:35;96434.28;;;17.04;60.96
3960;BME280;1994;48.640;8.894;2024-02-15T09:54:02;96431.34;;;17.94;57.24
3960;BME280;1994;48.640;8.894;2024-02-15T09:56:31;96427.09;;;18.98;54.70
3960;BME280;1994;48.640;8.894;2024-02-15T09:58:59;96427.06;;;19.27;52.68
3960;BME280;1994;48.640;8.894;2024-02-15T10:01:27;96424.41;;;19.92;52.55
3960;BME280;1994;48.640;8.894;2024-02-15T10:03:58;96425.41;;;20.47;51.17
3960;BME280;1994;48.640;8.894;2024-02-15T10:06:25;96415.63;;;20.98;49.60
3960;BME280;1994;48.640;8.894;2024-02-15T10:08:52;96421.28;;;21.32;47.16
3960;BME280;1994;48.640;8.894;2024-02-15T10:11:19;96417.56;;;21.06;46.65
3960;BME280;1994;48.640;8.894;2024-02-15T10:13:46;96415.03;;;21.28;47.15
3960;BME280;1994;48.640;8.894;2024-02-15T10:16:18;96403.28;;;21.61;46.45
3960;BME280;1994;48.640;8.894;2024-02-15T10:18:45;96416.47;;;21.88;44.97
3960;BME280;1994;48.640;8.894;2024-02-15T10:21:27;96415.38;;;21.89;45.31
3960;BME280;1994;48.640;8.894;2024-02-15T10:24:08;96407.34;;;22.82;42.98
3960;BME280;1994;48.640;8.894;2024-02-15T10:26:36;96402.34;;;22.72;43.54
3960;BME280;1994;48.640;8.894;2024-02-15T10:31:39;96402.44;;;22.89;43.32
3960;BME280;1994;48.640;8.894;2024-02-15T10:34:08;96410.91;;;22.47;44.85
3960;BME280;1994;48.640;8.894;2024-02-15T10:36:34;96408.34;;;22.64;42.57
3960;BME280;1994;48.640;8.894;2024-02-15T10:39:19;96401.47;;;22.54;42.68
3960;BME280;1994;48.640;8.894;2024-02-15T10:41:50;96402.94;;;22.25;43.22
3960;BME280;1994;48.640;8.894;2024-02-15T10:44:22;96409.25;;;22.15;43.55
3960;BME280;1994;48.640;8.894;2024-02-15T10:46:52;96402.38;;;23.11;41.70
3960;BME280;1994;48.640;8.894;2024-02-15T10:49:22;96410.75;;;22.74;42.56
3960;BME280;1994;48.640;8.894;2024-02-15T10:52:00;96404.28;;;22.36;43.54
3960;BME280;1994;48.640;8.894;2024-02-15T10:57:05;96394.56;;;22.67;42.83
3960;BME280;1994;48.640;8.894;2024-02-15T10:59:38;96390.94;;;23.24;40.74
3960;BME280;1994;48.640;8.894;2024-02-15T11:02:31;96383.34;;;23.31;41.96
3960;BME280;1994;48.640;8.894;2024-02-15T11:05:06;96392.91;;;23.10;41.82
3960;BME280;1994;48.640;8.894;2024-02-15T11:07:36;96379.78;;;23.27;41.15
3960;BME280;1994;48.640;8.894;2024-02-15T11:10:04;96371.13;;;23.13;42.08
3960;BME280;1994;48.640;8.894;2024-02-15T11:12:34;96365.59;;;23.23;41.62
3960;BME280;1994;48.640;8.894;2024-02-15T11:15:00;96367.75;;;22.82;41.83
3960;BME280;1994;48.640;8.894;2024-02-15T11:17:47;96365.66;;;22.40;42.16
3960;BME280;1994;48.640;8.894;2024-02-15T11:23:02;96373.34;;;22.06;43.87
3960;BME280;1994;48.640;8.894;2024-02-15T11:25:36;96366.34;;;21.88;44.08
3960;BME280;1994;48.640;8.894;2024-02-15T11:30:55;96358.31;;;20.31;47.19
3960;BME280;1994;48.640;8.894;2024-02-15T11:33:33;96350.25;;;20.09;48.33
3960;BME280;1994;48.640;8.894;2024-02-15T11:36:03;96344.09;;;20.18;48.00
3960;BME280;1994;48.640;8.894;2024-02-15T11:38:33;96338.31;;;19.98;48.77
3960;BME280;1994;48.640;8.894;2024-02-15T11:41:06;96343.19;;;19.54;48.53
3960;BME280;1994;48.640;8.894;2024-02-15T11:46:16;96343.53;;;19.29;50.51
3960;BME280;1994;48.640;8.894;2024-02-15T11:48:46;96343.81;;;19.27;50.93
3960;BME280;1994;48.640;8.894;2024-02-15T11:51:26;96332.03;;;19.20;50.02
3960;BME280;1994;48.640;8.894;2024-02-15T11:54:06;96329.16;;;19.21;50.17
3960;BME280;1994;48.640;8.894;2024-02-15T11:59:12;96331.56;;;19.18;50.54
3960;BME280;1994;48.640;8.894;2024-02-15T12:01:44;96317.19;;;19.34;49.66
3960;BME280;1994;48.640;8.894;2024-02-15T12:04:32;96321.72;;;19.28;49.15
3960;BME280;1994;48.640;8.894;2024-02-15T12:07:16;96312.97;;;19.33;49.13
3960;BME280;1994;48.640;8.894;2024-02-15T12:10:01;96310.00;;;19.76;48.03
3960;BME280;1994;48.640;8.894;2024-02-15T12:12:53;96305.41;;;19.50;47.50
3960;BME280;1994;48.640;8.894;2024-02-15T12:15:38;96306.03;;;19.23;47.33
3960;BME280;1994;48.640;8.894;2024-02-15T12:18:22;96294.09;;;18.65;48.90
3960;BME280;1994;48.640;8.894;2024-02-15T12:21:08;96293.72;;;18.25;49.66
3960;BME280;1994;48.640;8.894;2024-02-15T12:23:38;96291.25;;;17.76;51.40
3960;BME280;1994;48.640;8.894;2024-02-15T12:26:04;96292.78;;;17.44;51.37
3960;BME280;1994;48.640;8.894;2024-02-15T12:28:31;96280.75;;;17.38;51.67
3960;BME280;1994;48.640;8.894;2024-02-15T12:30:57;96288.69;;;17.28;52.38
3960;BME280;1994;48.640;8.894;2024-02-15T12:33:23;96288.69;;;17.28;52.74
3960;BME280;1994;48.640;8.894;2024-02-15T12:35:50;96284.84;;;17.05;53.44
3960;BME280;1994;48.640;8.894;2024-02-15T12:38:16;96285.00;;;16.80;54.00
3960;BME280;1994;48.640;8.894;2024-02-15T12:40:43;96279.50;;;16.72;55.01
3960;BME280;1994;48.640;8.894;2024-02-15T12:43:11;96272.25;;;16.54;55.77
3960;BME280;1994;48.640;8.894;2024-02-15T12:45:42;96266.53;;;16.47;56.31
3960;BME280;1994;48.640;8.894;2024-02-15T12:48:09;96266.53;;;16.37;55.61
3960;BME280;1994;48.640;8.894;2024-02-15T12:50:36;96265.00;;;16.21;57.25
3960;BME280;1994;48.640;8.894;2024-02-15T12:53:02;96258.69;;;16.32;56.94
3960;BME280;1994;48.640;8.894;2024-02-15T12:55:31;96253.47;;;16.42;56.95
3960;BME280;1994;48.640;8.894;2024-02-15T12:58:01;96256.06;;;16.52;56.93
3960;BME280;1994;48.640;8.894;2024-02-15T13:00:31;96250.81;;;16.52;57.10
3960;BME280;1994;48.640;8.894;2024-02-15T13:03:01;96252.41;;;16.38;57.53
3960;BME280;1994;48.640;8.894;2024-02-15T13:05:30;96249.19;;;16.66;57.01
3960;BME280;1994;48.640;8.894;2024-02-15T13:07:57;96252.34;;;16.68;57.23
3960;BME280;1994;48.640;8.894;2024-02-15T13:10:23;96246.50;;;16.81;57.64
3960;BME280;1994;48.640;8.894;2024-02-15T13:12:52;96242.34;;;16.75;57.29
3960;BME280;1994;48.640;8.894;2024-02-15T13:15:19;96239.66;;;16.95;57.65
3960;BME280;1994;48.640;8.894;2024-02-15T13:17:50;96232.41;;;16.77;57.83
3960;BME280;1994;48.640;8.894;2024-02-15T13:20:24;96241.72;;;16.98;57.39
3960;BME280;1994;48.640;8.894;2024-02-15T13:23:06;96232.56;;;16.95;58.13
3960;BME280;1994;48.640;8.894;2024-02-15T13:25:35;96240.31;;;16.67;58.79
3960;BME280;1994;48.640;8.894;2024-02-15T13:28:09;96233.56;;;16.56;59.53
3960;BME280;1994;48.640;8.894;2024-02-15T13:30:38;96224.94;;;16.50;59.43
3960;BME280;1994;48.640;8.894;2024-02-15T13:33:05;96215.31;;;16.21;59.95
3960;BME280;1994;48.640;8.894;2024-02-15T13:35:32;96219.00;;;16.20;61.14
3960;BME280;1994;48.640;8.894;2024-02-15T13:37:58;96210.06;;;16.31;61.20
3960;BME280;1994;48.640;8.894;2024-02-15T13:40:25;96203.28;;;16.30;61.37
3960;BME280;1994;48.640;8.894;2024-02-15T13:42:56;96206.66;;;16.35;61.21
3960;BME280;1994;48.640;8.894;2024-02-15T13:45:40;96199.63;;;16.41;61.11
3960;BME280;1994;48.640;8.894;2024-02-15T13:48:06;96198.56;;;16.42;60.23
3960;BME280;1994;48.640;8.894;2024-02-15T13:50:33;96195.47;;;16.25;60.99